Time;durP1;ratioP1;P1;durP2;ratioP2;P2;SDS_P1;SDS_P2;PMS_P1;PMS_P2;Temp;Humidity;BMP_temperature;BMP_pressure;BME280_temperature;BME280_humidity;BME280_pressure;Samples;Min_cycle;Max_cycle;Signal;HPM_P1;HPM_P2
2023/10/12 00:01:59;;;;;;;6.03;4.50;;;;;;;;;;5016226;28;20104;-27
2023/10/12 00:04:27;;;;;;;6.13;4.38;;;;;;;;;;5016081;28;20125;-28
2023/10/12 00:06:54;;;;;;;11.75;4.38;;;;;;;;;;5016129;28;20113;-30
2023/10/12 00:09:25;;;;;;;5.68;4.07;;;;;;;;;;5016075;28;20058;-28
2023/10/12 00:12:07;;;;;;;;;;;;;;;;;;5016340;28;20025;-28
2023/10/12 00:14:33;;;;;;;7.20;4.07;;;;;;;;;;5015913;28;19918;-30
2023/10/12 00:17:00;;;;;;;6.03;4.68;;;;;;;;;;4998405;28;20026;-29
2023/10/12 00:19:26;;;;;;;7.50;4.80;;;;;;;;;;5015638;28;20034;-28
2023/10/12 00:22:00;;;;;;;6.05;4.00;;;;;;;;;;5016086;28;20437;-33
2023/10/12 00:24:26;;;;;;;9.18;5.00;;;;;;;;;;5016349;28;20033;-33
2023/10/12 00:26:53;;;;;;;5.63;4.45;;;;;;;;;;5015788;28;20472;-29
2023/10/12 00:29:19;;;;;;;5.30;4.38;;;;;;;;;;5015536;28;20029;-33
2023/10/12 00:31:47;;;;;;;5.50;4.38;;;;;;;;;;5015369;28;20060;-30
2023/10/12 00:34:14;;;;;;;6.63;4.78;;;;;;;;;;5014416;28;20037;-32
2023/10/12 00:36:41;;;;;;;4.57;3.88;;;;;;;;;;5015360;28;20354;-29
2023/10/12 00:39:11;;;;;;;8.93;5.65;;;;;;;;;;5015561;28;20037;-30
2023/10/12 00:41:39;;;;;;;6.95;5.72;;;;;;;;;;5015172;28;20049;-28
2023/10/12 00:49:16;;;;;;;6.00;4.65;;;;;;;;;;5015176;28;20030;-29
2023/10/12 00:51:49;;;;;;;4.65;4.25;;;;;;;;;;5015128;28;20034;-26
2023/10/12 00:54:26;;;;;;;6.10;4.18;;;;;;;;;;5015582;28;20025;-28
2023/10/12 00:57:02;;;;;;;5.32;4.53;;;;;;;;;;5015361;28;20052;-26
2023/10/12 00:59:32;;;;;;;7.88;4.10;;;;;;;;;;5014997;28;20022;-28
2023/10/12 01:02:15;;;;;;;7.28;4.65;;;;;;;;;;5014976;28;20014;-29
2023/10/12 01:04:41;;;;;;;7.15;3.90;;;;;;;;;;5015085;28;20041;-29
2023/10/12 01:07:19;;;;;;;6.55;4.38;;;;;;;;;;5014966;28;20026;-29
2023/10/12 01:09:46;;;;;;;5.53;4.15;;;;;;;;;;5015255;28;20033;-27
2023/10/12 01:12:16;;;;;;;4.25;3.85;;;;;;;;;;5014874;28;20087;-31
2023/10/12 01:14:43;;;;;;;4.47;4.07;;;;;;;;;;4997511;28;20083;-30
2023/10/12 01:17:16;;;;;;;7.35;4.68;;;;;;;;;;5015137;28;20404;-32
2023/10/12 01:19:46;;;;;;;5.22;4.30;;;;;;;;;;5015155;28;20022;-28
2023/10/12 01:22:13;;;;;;;8.30;3.80;;;;;;;;;;5014732;28;20033;-32
2023/10/12 01:24:57;;;;;;;5.75;3.92;;;;;;;;;;5015071;28;20058;-26
2023/10/12 01:27:28;;;;;;;7.57;4.20;;;;;;;;;;5015526;28;20045;-26
2023/10/12 01:30:07;;;;;;;4.40;3.95;;;;;;;;;;5015072;28;20369;-30
2023/10/12 01:32:37;;;;;;;5.32;4.05;;;;;;;;;;5014604;28;20539;-25
2023/10/12 01:35:04;;;;;;;6.03;4.60;;;;;;;;;;5014578;28;20034;-29
2023/10/12 01:37:41;;;;;;;5.93;4.93;;;;;;;;;;5014650;28;20060;-26
2023/10/12 01:40:21;;;;;;;4.18;3.78;;;;;;;;;;5014913;28;20368;-30
2023/10/12 01:45:19;;;;;;;6.57;3.90;;;;;;;;;;5015632;28;20045;-28
2023/10/12 01:50:33;;;;;;;6.10;4.20;;;;;;;;;;5018712;28;20125;-28
2023/10/12 01:53:01;;;;;;;4.90;4.45;;;;;;;;;;5018229;28;20030;-28
2023/10/12 01:55:31;;;;;;;6.30;4.30;;;;;;;;;;5018344;28;20025;-30
2023/10/12 01:57:58;;;;;;;8.68;5.05;;;;;;;;;;5018242;28;20021;-27
2023/10/12 02:00:27;;;;;;;4.47;4.05;;;;;;;;;;5018518;28;20449;-26
2023/10/12 02:03:02;;;;;;;4.78;4.28;;;;;;;;;;5000826;28;20018;-30
2023/10/12 02:05:33;;;;;;;4.80;4.28;;;;;;;;;;5018049;28;20373;-30
2023/10/12 02:08:05;;;;;;;5.78;4.07;;;;;;;;;;5018083;28;20045;-25
2023/10/12 02:10:41;;;;;;;4.40;4.00;;;;;;;;;;5018064;28;20495;-27
2023/10/12 02:13:07;;;;;;;4.93;3.75;;;;;;;;;;5017818;28;20026;-28
2023/10/12 02:15:34;;;;;;;4.65;3.67;;;;;;;;;;5018243;28;20357;-28
2023/10/12 02:18:00;;;;;;;4.43;4.03;;;;;;;;;;5017915;28;20053;-28
2023/10/12 02:20:35;;;;;;;5.03;4.20;;;;;;;;;;5018118;28;20022;-31
2023/10/12 02:23:04;;;;;;;6.22;4.32;;;;;;;;;;5017737;28;20029;-26
2023/10/12 02:25:32;;;;;;;4.15;3.75;;;;;;;;;;5017788;28;20462;-26
2023/10/12 02:27:59;;;;;;;6.32;3.72;;;;;;;;;;5017645;28;20025;-28
2023/10/12 02:30:28;;;;;;;4.55;4.03;;;;;;;;;;5017622;28;20025;-28
2023/10/12 02:33:00;;;;;;;4.55;4.15;;;;;;;;;;5017622;28;20017;-28
2023/10/12 02:35:37;;;;;;;4.53;4.13;;;;;;;;;;5017885;28;20029;-30
2023/10/12 02:38:07;;;;;;;4.75;4.35;;;;;;;;;;5017500;28;20041;-29
2023/10/12 02:40:33;;;;;;;5.20;4.32;;;;;;;;;;5017724;28;20330;-27
2023/10/12 02:42:59;;;;;;;5.47;4.28;;;;;;;;;;5017331;28;20100;-29
2023/10/12 02:45:29;;;;;;;4.53;3.85;;;;;;;;;;5017688;28;20022;-26
2023/10/12 02:47:58;;;;;;;6.65;4.18;;;;;;;;;;5017338;28;20064;-27
2023/10/12 02:50:29;;;;;;;8.55;4.22;;;;;;;;;;4999975;28;20045;-28
2023/10/12 02:52:55;;;;;;;4.97;3.90;;;;;;;;;;5017429;28;20442;-27
2023/10/12 02:58:23;;;;;;;4.50;4.10;;;;;;;;;;5016328;28;20515;-31
2023/10/12 03:00:44;;;;;;;4.22;3.85;;;;;;;;;;5014078;28;20364;-29
2023/10/12 03:03:22;;;;;;;5.13;4.57;;;;;;;;;;5017369;28;20054;-29
2023/10/12 03:05:49;;;;;;;4.07;3.45;;;;;;;;;;5016870;28;20052;-26
2023/10/12 03:08:16;;;;;;;9.23;4.68;;;;;;;;;;5017281;28;20103;-31
2023/10/12 03:11:31;;;;;;;5.18;4.20;;;;;;;;;;5016916;28;20018;-29
2023/10/12 03:13:35;;;;;;;4.90;4.43;;;;;;;;;;5006331;28;20108;-30
2023/10/12 03:16:08;;;;;;;5.15;4.65;;;;;;;;;;5016831;28;20033;-30
2023/10/12 03:18:35;;;;;;;4.28;3.90;;;;;;;;;;5017347;28;20018;-26
2023/10/12 03:21:23;;;;;;;4.30;3.90;;;;;;;;;;5017275;28;20052;-29
2023/10/12 03:23:47;;;;;;;4.13;3.72;;;;;;;;;;5016101;28;20038;-29
2023/10/12 03:28:50;;;;;;;4.47;3.95;;;;;;;;;;5016896;28;20038;-33
2023/10/12 03:31:26;;;;;;;4.10;3.80;;;;;;;;;;5016498;28;20026;-31
2023/10/12 03:33:54;;;;;;;4.90;4.50;;;;;;;;;;5016387;28;20025;-27
2023/10/12 03:36:31;;;;;;;4.95;4.55;;;;;;;;;;5016708;28;20021;-29
2023/10/12 03:39:13;;;;;;;4.93;4.45;;;;;;;;;;5016650;28;20353;-28
2023/10/12 03:44:19;;;;;;;5.00;4.18;;;;;;;;;;5016312;28;20477;-29
2023/10/12 03:46:47;;;;;;;4.57;3.92;;;;;;;;;;4998933;28;20528;-26
2023/10/12 03:49:24;;;;;;;4.82;4.32;;;;;;;;;;5016195;28;20044;-27
2023/10/12 03:51:57;;;;;;;4.30;4.00;;;;;;;;;;4999406;28;20378;-29
2023/10/12 03:54:29;;;;;;;4.35;3.95;;;;;;;;;;5016289;28;20041;-29
2023/10/12 03:57:07;;;;;;;4.03;3.72;;;;;;;;;;5016584;28;20073;-31
2023/10/12 03:59:44;;;;;;;4.63;3.72;;;;;;;;;;5016256;28;20052;-29
2023/10/12 04:02:14;;;;;;;4.68;4.28;;;;;;;;;;5016266;28;20445;-32
2023/10/12 04:04:51;;;;;;;4.00;3.63;;;;;;;;;;5015668;28;20477;-31
2023/10/12 04:07:18;;;;;;;3.78;3.47;;;;;;;;;;5016092;28;20409;-31
2023/10/12 04:09:51;;;;;;;5.63;3.88;;;;;;;;;;5015672;28;20033;-28
2023/10/12 04:12:19;;;;;;;5.90;3.60;;;;;;;;;;5015911;28;20033;-33
2023/10/12 04:14:55;;;;;;;4.05;3.50;;;;;;;;;;5015433;28;20208;-26
2023/10/12 04:17:48;;;;;;;4.30;3.90;;;;;;;;;;4998116;28;20050;-26
2023/10/12 04:20:17;;;;;;;4.90;4.40;;;;;;;;;;5014881;28;20445;-26
2023/10/12 04:25:13;;;;;;;4.93;3.42;;;;;;;;;;5015314;28;20030;-26
2023/10/12 04:27:52;;;;;;;4.03;3.50;;;;;;;;;;5015506;28;20105;-26
2023/10/12 04:30:21;;;;;;;4.60;3.78;;;;;;;;;;5016583;28;20033;-30
2023/10/12 04:38:57;;;;;;;4.35;3.80;;;;;;;;;;4987294;28;20524;-28
2023/10/12 04:43:52;;;;;;;4.43;3.63;;;;;;;;;;5015520;28;20140;-30
2023/10/12 04:48:58;;;;;;;5.88;3.95;;;;;;;;;;5015010;28;20032;-30
2023/10/12 04:51:30;;;;;;;4.00;3.60;;;;;;;;;;5015375;28;20022;-28
2023/10/12 04:54:16;;;;;;;4.38;3.97;;;;;;;;;;5014861;28;20026;-28
2023/10/12 04:56:56;;;;;;;9.10;3.88;;;;;;;;;;4997622;28;20025;-28
2023/10/12 04:59:29;;;;;;;6.45;4.18;;;;;;;;;;5014798;28;20041;-32
2023/10/12 05:09:49;;;;;;;7.60;4.35;;;;;;;;;;5014825;28;20041;-31
2023/10/12 05:12:25;;;;;;;3.83;3.53;;;;;;;;;;5014622;28;20041;-30
2023/10/12 05:15:01;;;;;;;3.83;3.25;;;;;;;;;;5014714;28;20041;-30
2023/10/12 05:17:28;;;;;;;5.43;3.92;;;;;;;;;;5014552;28;20061;-29
2023/10/12 05:19:54;;;;;;;5.60;4.07;;;;;;;;;;5016432;28;20088;-31
2023/10/12 05:22:23;;;;;;;4.22;3.70;;;;;;;;;;5021055;28;20065;-26
2023/10/12 05:24:49;;;;;;;5.80;3.90;;;;;;;;;;5021082;28;20038;-30
2023/10/12 05:27:38;;;;;;;6.95;4.55;;;;;;;;;;5021007;28;20026;-29
2023/10/12 05:30:13;;;;;;;4.30;4.00;;;;;;;;;;5020968;28;20068;-27
2023/10/12 05:32:55;;;;;;;4.03;3.63;;;;;;;;;;5021242;28;20034;-28
2023/10/12 05:35:49;;;;;;;4.18;3.78;;;;;;;;;;5021253;28;20026;-28
2023/10/12 05:38:08;;;;;;;4.00;3.53;;;;;;;;;;5020862;28;20133;-32
2023/10/12 05:40:41;;;;;;;3.88;3.58;;;;;;;;;;5020857;28;20025;-31
2023/10/12 05:43:18;;;;;;;6.65;4.20;;;;;;;;;;5020864;28;20117;-28
2023/10/12 05:45:45;;;;;;;4.05;3.50;;;;;;;;;;5021118;28;20030;-26
2023/10/12 05:48:12;;;;;;;4.68;3.33;;;;;;;;;;5021432;28;20018;-29
2023/10/12 05:50:39;;;;;;;8.18;4.18;;;;;;;;;;5020839;28;20072;-27
2023/10/12 05:53:07;;;;;;;3.95;3.65;;;;;;;;;;5020942;28;20042;-29
2023/10/12 05:55:34;;;;;;;6.90;4.03;;;;;;;;;;5021000;28;20037;-29
2023/10/12 05:58:11;;;;;;;6.18;3.70;;;;;;;;;;5021117;28;20492;-29
2023/10/12 06:03:22;;;;;;;4.25;3.85;;;;;;;;;;5347096;23;20109;-25
2023/10/12 06:05:50;;;;;;;3.85;3.55;;;;;;;;;;5001683;28;20019;-22
2023/10/12 06:08:17;;;;;;;4.28;3.67;;;;;;;;;;5001566;28;20084;-23
2023/10/12 06:10:43;;;;;;;4.93;3.75;;;;;;;;;;4984762;28;20437;-23
2023/10/12 06:13:10;;;;;;;5.20;3.90;;;;;;;;;;5000854;28;20133;-31
2023/10/12 06:15:42;;;;;;;3.35;2.83;;;;;;;;;;5001073;28;20022;-24
2023/10/12 06:18:21;;;;;;;4.75;4.13;;;;;;;;;;5001067;28;20088;-23
2023/10/12 06:20:47;;;;;;;4.32;3.45;;;;;;;;;;5001114;28;20025;-23
2023/10/12 06:23:15;;;;;;;4.95;3.75;;;;;;;;;;5001155;28;20030;-24
2023/10/12 06:25:44;;;;;;;6.18;3.38;;;;;;;;;;5001188;28;20022;-24
2023/10/12 06:28:17;;;;;;;7.65;4.25;;;;;;;;;;5001163;28;20030;-23
2023/10/12 06:30:44;;;;;;;4.28;3.50;;;;;;;;;;5001212;28;20049;-24
2023/10/12 06:33:14;;;;;;;5.38;3.70;;;;;;;;;;4996564;28;20089;-24
2023/10/12 06:35:58;;;;;;;4.03;3.72;;;;;;;;;;4997843;28;20038;-22
2023/10/12 06:38:36;;;;;;;3.60;3.35;;;;;;;;;;4998129;28;20029;-24
2023/10/12 06:46:19;;;;;;;6.07;3.72;;;;;;;;;;4997617;28;20093;-23
2023/10/12 06:48:47;;;;;;;4.95;3.60;;;;;;;;;;4997550;28;20105;-23
2023/10/12 06:51:13;;;;;;;5.82;4.35;;;;;;;;;;4997613;28;20026;-23
2023/10/12 06:53:51;;;;;;;4.45;3.95;;;;;;;;;;4997129;28;20031;-22
2023/10/12 07:01:38;;;;;;;5.80;4.57;;;;;;;;;;4982933;28;20484;-24
2023/10/12 07:07:11;;;;;;;4.93;4.00;;;;;;;;;;4984475;28;20026;-24
2023/10/12 07:09:44;;;;;;;9.43;4.63;;;;;;;;;;4980014;28;20383;-23
2023/10/12 07:12:14;;;;;;;12.48;5.10;;;;;;;;;;4997227;28;20185;-23
2023/10/12 07:14:47;;;;;;;6.13;3.80;;;;;;;;;;4996959;28;20026;-23
2023/10/12 07:17:14;;;;;;;8.80;4.55;;;;;;;;;;4997367;28;20057;-23
2023/10/12 07:19:46;;;;;;;10.27;5.03;;;;;;;;;;4997568;28;20447;-24
2023/10/12 07:22:15;;;;;;;5.85;3.60;;;;;;;;;;4997169;28;20331;-24
2023/10/12 07:24:44;;;;;;;8.32;4.78;;;;;;;;;;4997428;28;20034;-24
2023/10/12 07:27:11;;;;;;;6.72;4.03;;;;;;;;;;4996807;28;20528;-26
2023/10/12 07:29:39;;;;;;;4.22;3.75;;;;;;;;;;4996948;28;20037;-23
2023/10/12 07:32:19;;;;;;;7.32;4.20;;;;;;;;;;4996557;28;20030;-23
2023/10/12 07:34:53;;;;;;;7.35;3.92;;;;;;;;;;4997223;28;20033;-23
2023/10/12 07:37:20;;;;;;;8.73;4.10;;;;;;;;;;4997064;28;20571;-24
2023/10/12 07:39:46;;;;;;;11.07;4.00;;;;;;;;;;4979505;28;20030;-23
2023/10/12 07:42:12;;;;;;;7.72;3.83;;;;;;;;;;4996493;28;20113;-23
2023/10/12 07:44:42;;;;;;;5.53;4.05;;;;;;;;;;4978993;28;20370;-23
2023/10/12 07:47:18;;;;;;;12.38;3.88;;;;;;;;;;4996880;28;20361;-24
2023/10/12 07:49:49;;;;;;;8.32;4.25;;;;;;;;;;4996425;28;20026;-23
2023/10/12 07:57:17;;;;;;;7.28;4.43;;;;;;;;;;4996792;28;20446;-24
2023/10/12 07:59:57;;;;;;;6.00;4.13;;;;;;;;;;4996262;28;20483;-24
2023/10/12 08:21:43;;;;;;;4.80;4.00;;;;;;;;;;4936307;29;20495;-23
2023/10/12 08:24:09;;;;;;;6.65;3.67;;;;;;;;;;4936333;29;20367;-24
2023/10/12 08:29:09;;;;;;;7.63;3.58;;;;;;;;;;4995972;28;20068;-24
2023/10/12 08:31:43;;;;;;;8.75;3.70;;;;;;;;;;4995858;28;20110;-23
2023/10/12 08:39:38;;;;;;;8.05;3.92;;;;;;;;;;4995525;28;20037;-23
2023/10/12 08:44:54;;;;;;;9.25;3.83;;;;;;;;;;4995442;28;20076;-24
2023/10/12 08:47:25;;;;;;;6.95;4.70;;;;;;;;;;4995497;28;20034;-22
2023/10/12 08:50:03;;;;;;;7.53;3.97;;;;;;;;;;4978924;28;20026;-24
2023/10/12 08:52:31;;;;;;;6.45;3.88;;;;;;;;;;4995306;28;20084;-24
2023/10/12 08:54:57;;;;;;;4.28;3.67;;;;;;;;;;4977480;28;20027;-24
2023/10/12 08:57:38;;;;;;;5.75;3.80;;;;;;;;;;4995281;28;20034;-24
2023/10/12 09:00:25;;;;;;;4.22;3.83;;;;;;;;;;4995840;28;20018;-23
2023/10/12 09:02:54;;;;;;;7.05;4.85;;;;;;;;;;4995201;28;20050;-24
2023/10/12 09:05:25;;;;;;;6.43;3.67;;;;;;;;;;4995489;28;20417;-24
2023/10/12 09:08:07;;;;;;;5.10;3.75;;;;;;;;;;4995187;28;20097;-23
2023/10/12 09:10:55;;;;;;;8.68;3.42;;;;;;;;;;4995036;28;20034;-23
2023/10/12 09:13:22;;;;;;;6.75;3.30;;;;;;;;;;4994689;28;20031;-23
2023/10/12 09:15:55;;;;;;;5.78;4.20;;;;;;;;;;4994731;28;20030;-24
2023/10/12 09:18:29;;;;;;;4.97;3.92;;;;;;;;;;4995057;28;20022;-25
2023/10/12 09:24:21;;;;;;;5.80;4.43;;;;;;;;;;4995274;28;20114;-25
2023/10/12 09:28:53;;;;;;;4.63;4.22;;;;;;;;;;4994845;28;20092;-23
2023/10/12 09:36:26;;;;;;;5.45;4.38;;;;;;;;;;4995365;28;20030;-24
2023/10/12 09:39:00;;;;;;;11.68;4.00;;;;;;;;;;4994916;28;20022;-25
2023/10/12 09:41:29;;;;;;;12.77;4.30;;;;;;;;;;4994985;28;20416;-23
2023/10/12 09:44:00;;;;;;;7.00;4.20;;;;;;;;;;4994859;28;20110;-23
2023/10/12 09:46:28;;;;;;;9.77;4.40;;;;;;;;;;4994681;28;20031;-22
2023/10/12 09:49:06;;;;;;;8.90;4.35;;;;;;;;;;4994837;28;20389;-24
2023/10/12 09:51:47;;;;;;;12.35;5.55;;;;;;;;;;4995021;28;20022;-23
2023/10/12 09:54:18;;;;;;;13.75;5.55;;;;;;;;;;4978604;28;20046;-24
2023/10/12 09:56:57;;;;;;;13.07;3.92;;;;;;;;;;4961516;28;20073;-23
2023/10/12 09:59:23;;;;;;;12.52;4.47;;;;;;;;;;4994521;28;20050;-24
2023/10/12 10:01:50;;;;;;;10.55;5.20;;;;;;;;;;4994794;28;20097;-24
2023/10/12 10:07:17;;;;;;;12.88;3.63;;;;;;;;;;4996499;28;20030;-24
2023/10/12 10:09:48;;;;;;;8.63;3.92;;;;;;;;;;4998385;28;20054;-24
2023/10/12 10:12:16;;;;;;;10.95;4.32;;;;;;;;;;4980880;28;20054;-24
2023/10/12 10:14:45;;;;;;;8.90;3.58;;;;;;;;;;4997961;28;20480;-24
2023/10/12 10:17:15;;;;;;;7.55;3.78;;;;;;;;;;4998046;28;20358;-22
2023/10/12 10:19:51;;;;;;;7.18;3.85;;;;;;;;;;4980697;28;20050;-24
2023/10/12 10:22:21;;;;;;;8.52;4.35;;;;;;;;;;4980531;28;20065;-23
2023/10/12 10:24:50;;;;;;;8.43;4.30;;;;;;;;;;4997600;28;20034;-23
2023/10/12 10:27:17;;;;;;;6.90;3.80;;;;;;;;;;4997893;28;20450;-23
2023/10/12 10:29:53;;;;;;;9.82;4.78;;;;;;;;;;4997832;28;20038;-23
2023/10/12 10:32:36;;;;;;;7.15;3.60;;;;;;;;;;4997802;28;20088;-24
2023/10/12 10:35:18;;;;;;;9.05;4.47;;;;;;;;;;4980746;28;20026;-22
2023/10/12 10:37:57;;;;;;;7.60;3.78;;;;;;;;;;4997356;28;20034;-24
2023/10/12 10:40:44;;;;;;;6.00;4.15;;;;;;;;;;4997531;28;20050;-23
2023/10/12 10:43:14;;;;;;;6.38;3.95;;;;;;;;;;4997187;28;20472;-22
2023/10/12 10:45:42;;;;;;;6.68;4.10;;;;;;;;;;4997575;28;20415;-23
2023/10/12 10:48:13;;;;;;;7.35;3.60;;;;;;;;;;4997469;28;20318;-24
2023/10/12 10:50:49;;;;;;;12.23;4.65;;;;;;;;;;4997369;28;20453;-23
2023/10/12 10:53:16;;;;;;;10.93;4.97;;;;;;;;;;4997183;28;20030;-24
2023/10/12 10:55:42;;;;;;;9.88;4.32;;;;;;;;;;4980154;28;20434;-24
2023/10/12 10:58:09;;;;;;;11.90;4.47;;;;;;;;;;4997220;28;20442;-24
2023/10/12 11:00:37;;;;;;;9.68;4.55;;;;;;;;;;4997280;28;20501;-24
2023/10/12 11:03:03;;;;;;;8.40;4.22;;;;;;;;;;4996911;28;20046;-24
2023/10/12 11:05:30;;;;;;;4.82;3.80;;;;;;;;;;4997575;28;20061;-24
2023/10/12 11:08:15;;;;;;;8.68;3.60;;;;;;;;;;4980061;28;20034;-23
2023/10/12 11:11:25;;;;;;;11.82;5.75;;;;;;;;;;4997191;28;20101;-24
2023/10/12 11:13:31;;;;;;;6.10;4.03;;;;;;;;;;4996932;28;20104;-23
2023/10/12 11:16:03;;;;;;;5.70;3.80;;;;;;;;;;4997125;28;20022;-22
2023/10/12 11:18:30;;;;;;;7.18;3.85;;;;;;;;;;4996602;28;20041;-24
2023/10/12 11:21:00;;;;;;;11.00;4.95;;;;;;;;;;4979901;28;20085;-23
2023/10/12 11:23:26;;;;;;;9.27;4.57;;;;;;;;;;4996856;28;20111;-23
2023/10/12 11:26:04;;;;;;;4.10;3.70;;;;;;;;;;4997309;28;20080;-24
2023/10/12 11:28:33;;;;;;;9.23;3.95;;;;;;;;;;4979597;28;20037;-24
2023/10/12 11:31:17;;;;;;;4.03;3.58;;;;;;;;;;4997272;28;20022;-23
2023/10/12 11:33:49;;;;;;;10.52;3.92;;;;;;;;;;4996461;28;20037;-24
2023/10/12 11:36:25;;;;;;;5.40;4.03;;;;;;;;;;4996773;28;20381;-24
2023/10/12 11:38:59;;;;;;;6.68;4.80;;;;;;;;;;4996687;28;20382;-23
2023/10/12 11:41:25;;;;;;;7.63;3.70;;;;;;;;;;4996364;28;20507;-23
2023/10/12 11:43:53;;;;;;;6.78;4.47;;;;;;;;;;4996494;28;20093;-24
2023/10/12 11:46:19;;;;;;;4.53;3.90;;;;;;;;;;4996476;28;20061;-23
2023/10/12 11:49:00;;;;;;;8.80;3.88;;;;;;;;;;4997035;28;20026;-25
2023/10/12 11:51:26;;;;;;;;;;;;;;;;;;4979929;28;20031;-24
2023/10/12 11:53:53;;;;;;;11.25;4.22;;;;;;;;;;4996704;28;19917;-23
2023/10/12 11:56:22;;;;;;;5.90;4.13;;;;;;;;;;4996610;28;20053;-24
2023/10/12 11:58:55;;;;;;;7.63;4.00;;;;;;;;;;4996527;28;20472;-24
2023/10/12 12:01:22;;;;;;;10.52;5.43;;;;;;;;;;4996078;28;20034;-24
2023/10/12 12:03:53;;;;;;;11.23;4.68;;;;;;;;;;4996275;28;20058;-23
2023/10/12 12:06:19;;;;;;;;;;;;;;;;;;4996431;28;20464;-25
2023/10/12 12:08:49;;;;;;;11.02;4.00;;;;;;;;;;4996141;28;20004;-24
2023/10/12 12:11:19;;;;;;;4.15;3.70;;;;;;;;;;4996079;28;20030;-23
2023/10/12 12:13:51;;;;;;;4.68;3.65;;;;;;;;;;4995624;28;20031;-23
2023/10/12 12:16:21;;;;;;;4.82;3.97;;;;;;;;;;4995791;28;20019;-24
2023/10/12 12:18:54;;;;;;;7.80;4.47;;;;;;;;;;4995809;28;20022;-25
2023/10/12 12:21:30;;;;;;;5.57;4.05;;;;;;;;;;4995963;28;20441;-24
2023/10/12 12:24:01;;;;;;;5.13;4.03;;;;;;;;;;4995833;28;20417;-24
2023/10/12 12:26:33;;;;;;;7.32;4.95;;;;;;;;;;4995624;28;20030;-23
2023/10/12 12:29:04;;;;;;;9.43;4.30;;;;;;;;;;4995174;28;20117;-23
2023/10/12 12:31:33;;;;;;;8.15;4.35;;;;;;;;;;4979028;28;20026;-24
2023/10/12 12:34:01;;;;;;;5.05;3.30;;;;;;;;;;4995397;28;20109;-24
2023/10/12 12:36:30;;;;;;;7.28;4.05;;;;;;;;;;4995754;28;20445;-24
2023/10/12 12:39:00;;;;;;;10.23;4.13;;;;;;;;;;4995408;28;20022;-23
2023/10/12 12:41:29;;;;;;;9.32;4.00;;;;;;;;;;4978296;28;20461;-25
2023/10/12 12:43:59;;;;;;;11.20;4.22;;;;;;;;;;4978092;28;20046;-23
2023/10/12 12:46:25;;;;;;;8.18;4.25;;;;;;;;;;4995539;28;20448;-23
2023/10/12 12:48:52;;;;;;;7.32;4.25;;;;;;;;;;4995261;28;20100;-24
2023/10/12 12:51:18;;;;;;;12.02;4.85;;;;;;;;;;4995325;28;20030;-24
2023/10/12 12:53:50;;;;;;;8.63;4.20;;;;;;;;;;4995234;28;20030;-24
2023/10/12 12:56:17;;;;;;;10.57;4.47;;;;;;;;;;4995289;28;20026;-24
2023/10/12 12:58:46;;;;;;;13.35;4.90;;;;;;;;;;4995308;28;20026;-24
2023/10/12 13:01:13;;;;;;;7.65;4.40;;;;;;;;;;4995238;28;20026;-23
2023/10/12 13:03:40;;;;;;;6.80;4.03;;;;;;;;;;4995000;28;20393;-24
2023/10/12 13:06:07;;;;;;;9.15;4.63;;;;;;;;;;4995268;28;20026;-24
2023/10/12 13:08:34;;;;;;;8.88;3.80;;;;;;;;;;4995145;28;20022;-23
2023/10/12 13:11:00;;;;;;;10.57;4.25;;;;;;;;;;4995403;28;20026;-24
2023/10/12 13:13:26;;;;;;;7.95;4.07;;;;;;;;;;4995279;28;20041;-24
2023/10/12 13:15:53;;;;;;;8.38;3.72;;;;;;;;;;4994823;28;20018;-23
2023/10/12 13:18:19;;;;;;;9.43;4.03;;;;;;;;;;4995173;28;20484;-23
2023/10/12 13:20:46;;;;;;;8.80;4.18;;;;;;;;;;4994622;28;20034;-24
2023/10/12 13:23:17;;;;;;;7.90;3.90;;;;;;;;;;4994836;28;20433;-22
2023/10/12 13:25:43;;;;;;;7.22;4.57;;;;;;;;;;4994502;28;20057;-23
2023/10/12 13:28:10;;;;;;;7.35;3.95;;;;;;;;;;4994804;28;20030;-24
2023/10/12 13:30:39;;;;;;;7.13;4.07;;;;;;;;;;4995140;28;20468;-24
2023/10/12 13:33:09;;;;;;;6.28;4.63;;;;;;;;;;4995034;28;20031;-22
2023/10/12 13:35:42;;;;;;;6.05;4.28;;;;;;;;;;4994653;28;20026;-25
2023/10/12 13:38:11;;;;;;;7.32;3.50;;;;;;;;;;4994856;28;20034;-24
2023/10/12 13:40:38;;;;;;;9.02;4.03;;;;;;;;;;4994807;28;20018;-24
2023/10/12 13:43:26;;;;;;;7.22;4.00;;;;;;;;;;4998813;28;20030;-23
2023/10/12 13:45:54;;;;;;;11.40;3.85;;;;;;;;;;4998844;28;20023;-24
2023/10/12 13:48:22;;;;;;;7.28;4.10;;;;;;;;;;4998742;28;20108;-22
2023/10/12 13:50:59;;;;;;;8.32;3.47;;;;;;;;;;4999141;28;20046;-23
2023/10/12 13:53:29;;;;;;;10.90;4.55;;;;;;;;;;4982305;28;20030;-23
2023/10/12 13:55:56;;;;;;;14.13;5.22;;;;;;;;;;4998568;28;20030;-25
2023/10/12 13:58:25;;;;;;;9.20;4.13;;;;;;;;;;4998884;28;20026;-25
2023/10/12 14:00:53;;;;;;;13.25;4.60;;;;;;;;;;4998694;28;20034;-22
2023/10/12 14:03:27;;;;;;;11.60;5.55;;;;;;;;;;4998074;28;20046;-24
2023/10/12 14:05:54;;;;;;;5.93;3.72;;;;;;;;;;4998461;28;20047;-24
2023/10/12 14:08:20;;;;;;;5.63;5.00;;;;;;;;;;4998492;28;20022;-23
2023/10/12 14:10:46;;;;;;;8.35;4.20;;;;;;;;;;4998550;28;20038;-24
2023/10/12 14:13:13;;;;;;;9.77;4.20;;;;;;;;;;4998275;28;20022;-25
2023/10/12 14:15:43;;;;;;;8.45;3.88;;;;;;;;;;4998468;28;20027;-24
2023/10/12 14:18:11;;;;;;;13.20;4.50;;;;;;;;;;4998218;28;20027;-23
2023/10/12 14:20:39;;;;;;;7.95;4.00;;;;;;;;;;4998487;28;20019;-24
2023/10/12 14:23:08;;;;;;;12.20;4.70;;;;;;;;;;4998093;28;20052;-25
2023/10/12 14:25:35;;;;;;;9.73;4.28;;;;;;;;;;4998123;28;20058;-24
2023/10/12 14:28:03;;;;;;;9.25;4.22;;;;;;;;;;4998773;28;20073;-22
2023/10/12 14:30:29;;;;;;;11.20;4.15;;;;;;;;;;4980764;28;20092;-23
2023/10/12 14:33:02;;;;;;;11.55;4.07;;;;;;;;;;4997908;28;20030;-22
2023/10/12 14:35:28;;;;;;;11.52;4.32;;;;;;;;;;4997821;28;20481;-25
2023/10/12 14:37:55;;;;;;;11.60;5.40;;;;;;;;;;4997774;28;20026;-23
2023/10/12 14:40:29;;;;;;;6.95;4.18;;;;;;;;;;4997814;28;20026;-23
2023/10/12 14:43:11;;;;;;;11.10;4.72;;;;;;;;;;4997658;28;20572;-24
2023/10/12 14:45:58;;;;;;;8.13;4.38;;;;;;;;;;4998022;28;20034;-23
2023/10/12 14:48:27;;;;;;;11.45;4.15;;;;;;;;;;4997812;28;20026;-23
2023/10/12 14:51:00;;;;;;;14.10;5.25;;;;;;;;;;4997481;28;20033;-22
2023/10/12 14:53:28;;;;;;;4.95;3.85;;;;;;;;;;4996497;28;20468;-24
2023/10/12 14:55:54;;;;;;;11.50;5.53;;;;;;;;;;4997580;28;20027;-22
2023/10/12 14:58:26;;;;;;;11.88;4.72;;;;;;;;;;4997428;28;20054;-25
2023/10/12 15:00:53;;;;;;;11.05;4.65;;;;;;;;;;4997767;28;20022;-24
2023/10/12 15:03:22;;;;;;;9.93;5.10;;;;;;;;;;4997115;28;20127;-24
2023/10/12 15:05:51;;;;;;;7.53;4.25;;;;;;;;;;4997553;28;20476;-23
2023/10/12 15:08:18;;;;;;;13.05;4.45;;;;;;;;;;4979995;28;20362;-24
2023/10/12 15:10:44;;;;;;;13.82;6.20;;;;;;;;;;4997200;28;20026;-22
2023/10/12 15:13:14;;;;;;;9.43;4.43;;;;;;;;;;4997313;28;20394;-23
2023/10/12 15:15:46;;;;;;;9.65;4.88;;;;;;;;;;4997404;28;20353;-24
2023/10/12 15:18:13;;;;;;;7.82;4.32;;;;;;;;;;4980324;28;20032;-23
2023/10/12 15:20:40;;;;;;;7.13;4.55;;;;;;;;;;4997121;28;20018;-24
2023/10/12 15:23:09;;;;;;;12.60;5.07;;;;;;;;;;4979923;28;20038;-22
2023/10/12 15:25:36;;;;;;;9.68;5.25;;;;;;;;;;4997595;28;20476;-24
2023/10/12 15:28:02;;;;;;;6.70;3.72;;;;;;;;;;4997028;28;20418;-24
2023/10/12 15:30:29;;;;;;;13.30;5.97;;;;;;;;;;4996989;28;20038;-24
2023/10/12 15:32:55;;;;;;;11.45;5.47;;;;;;;;;;4996871;28;20022;-24
2023/10/12 15:35:24;;;;;;;15.57;7.63;;;;;;;;;;4979664;28;20035;-24
2023/10/12 15:37:51;;;;;;;5.43;4.45;;;;;;;;;;4997135;28;20022;-24
2023/10/12 15:40:20;;;;;;;10.07;4.25;;;;;;;;;;4997054;28;20446;-23
2023/10/12 15:42:47;;;;;;;4.68;3.60;;;;;;;;;;4996864;28;20031;-24
2023/10/12 15:45:13;;;;;;;5.47;4.35;;;;;;;;;;4997080;28;20460;-24
2023/10/12 15:47:40;;;;;;;9.10;4.35;;;;;;;;;;4996422;28;20479;-22
2023/10/12 15:50:06;;;;;;;6.07;4.38;;;;;;;;;;4996233;28;20031;-23
2023/10/12 15:52:32;;;;;;;7.18;3.55;;;;;;;;;;4996434;28;20108;-23
2023/10/12 15:54:59;;;;;;;10.10;4.35;;;;;;;;;;4996228;28;20030;-22
2023/10/12 15:57:25;;;;;;;8.43;4.30;;;;;;;;;;4996253;28;20414;-22
2023/10/12 15:59:53;;;;;;;8.98;4.07;;;;;;;;;;4996202;28;20030;-24
2023/10/12 16:02:20;;;;;;;7.25;4.07;;;;;;;;;;4996263;28;20084;-22
2023/10/12 16:04:48;;;;;;;9.60;4.45;;;;;;;;;;4995943;28;20072;-23
2023/10/12 16:07:18;;;;;;;11.15;4.57;;;;;;;;;;4996440;28;20034;-22
2023/10/12 16:09:49;;;;;;;11.00;4.47;;;;;;;;;;4996171;28;20053;-23
2023/10/12 16:12:19;;;;;;;9.93;4.57;;;;;;;;;;4996302;28;20069;-24
2023/10/12 16:14:47;;;;;;;9.38;4.55;;;;;;;;;;4996321;28;20037;-25
2023/10/12 16:17:16;;;;;;;6.68;4.28;;;;;;;;;;4996636;28;20038;-23
2023/10/12 16:19:43;;;;;;;5.75;4.03;;;;;;;;;;4996381;28;20438;-22
2023/10/12 16:22:10;;;;;;;9.27;5.03;;;;;;;;;;4995884;28;20023;-23
2023/10/12 16:24:36;;;;;;;6.25;4.38;;;;;;;;;;4996446;28;20085;-23
2023/10/12 16:27:03;;;;;;;11.77;4.32;;;;;;;;;;4995863;28;20030;-24
2023/10/12 16:29:30;;;;;;;9.15;5.38;;;;;;;;;;4996065;28;20056;-24
2023/10/12 16:31:58;;;;;;;12.13;4.97;;;;;;;;;;4978453;28;20121;-22
2023/10/12 16:37:07;;;;;;;8.00;4.30;;;;;;;;;;5366990;23;20120;-32
2023/10/12 16:39:34;;;;;;;10.52;4.55;;;;;;;;;;4996117;28;20030;-28
2023/10/12 16:42:02;;;;;;;8.00;4.53;;;;;;;;;;4996013;28;20100;-30
2023/10/12 16:44:28;;;;;;;8.88;4.25;;;;;;;;;;4995481;28;20461;-33
2023/10/12 16:46:54;;;;;;;8.73;4.85;;;;;;;;;;4995428;28;20030;-31
2023/10/12 16:49:24;;;;;;;6.90;4.32;;;;;;;;;;4995547;28;20121;-31